sensor_id;sensor_type;location;lat;lon;timestamp;pressure;altitude;pressure_sealevel;temperature
34807;BMP180;18310;55.586;12.286;2023-03-20T07:06:23;101307.00;;;16.70
34807;BMP180;18310;55.586;12.286;2023-03-20T07:09:26;101314.00;;;16.80
34807;BMP180;18310;55.586;12.286;2023-03-20T07:12:29;101311.00;;;16.80
34807;BMP180;18310;55.586;12.286;2023-03-20T07:15:32;101305.00;;;16.80
34807;BMP180;18310;55.586;12.286;2023-03-20T07:18:35;101299.00;;;16.90
34807;BMP180;18310;55.586;12.286;2023-03-20T07:21:40;101305.00;;;16.90
34807;BMP180;18310;55.586;12.286;2023-03-20T07:24:43;101308.00;;;16.90
34807;BMP180;18310;55.586;12.286;2023-03-20T07:27:48;101310.00;;;16.90
34807;BMP180;18310;55.586;12.286;2023-03-20T07:30:51;101296.00;;;16.90
34807;BMP180;18310;55.586;12.286;2023-03-20T07:33:54;101305.00;;;16.90
34807;BMP180;18310;55.586;12.286;2023-03-20T07:36:58;101306.00;;;16.90
34807;BMP180;18310;55.586;12.286;2023-03-20T07:40:02;101317.00;;;16.90
34807;BMP180;18310;55.586;12.286;2023-03-20T07:43:05;101315.00;;;16.90
34807;BMP180;18310;55.586;12.286;2023-03-20T07:46:08;101313.00;;;16.80
34807;BMP180;18310;55.586;12.286;2023-03-20T07:49:11;101322.00;;;16.80
34807;BMP180;18310;55.586;12.286;2023-03-20T07:52:15;101322.00;;;16.80
34807;BMP180;18310;55.586;12.286;2023-03-20T07:55:18;101325.00;;;16.80
34807;BMP180;18310;55.586;12.286;2023-03-20T07:58:21;101325.00;;;16.80
34807;BMP180;18310;55.586;12.286;2023-03-20T08:01:24;101316.00;;;16.80
34807;BMP180;18310;55.586;12.286;2023-03-20T08:04:27;101322.00;;;16.80
34807;BMP180;18310;55.586;12.286;2023-03-20T08:07:31;101323.00;;;16.80
34807;BMP180;18310;55.586;12.286;2023-03-20T08:10:34;101323.00;;;16.90
34807;BMP180;18310;55.586;12.286;2023-03-20T08:13:37;101320.00;;;16.90
34807;BMP180;18310;55.586;12.286;2023-03-20T08:16:40;101311.00;;;16.90
34807;BMP180;18310;55.586;12.286;2023-03-20T08:19:43;101313.00;;;16.90
34807;BMP180;18310;55.586;12.286;2023-03-20T08:22:47;101301.00;;;16.90
34807;BMP180;18310;55.586;12.286;2023-03-20T08:25:52;101297.00;;;17.00
34807;BMP180;18310;55.586;12.286;2023-03-20T08:28:55;101305.00;;;17.00
34807;BMP180;18310;55.586;12.286;2023-03-20T08:31:59;101293.00;;;17.00
34807;BMP180;18310;55.586;12.286;2023-03-20T08:35:03;101296.00;;;17.00
34807;BMP180;18310;55.586;12.286;2023-03-20T08:38:10;101306.00;;;17.10
34807;BMP180;18310;55.586;12.286;2023-03-20T08:41:14;101308.00;;;17.10
34807;BMP180;18310;55.586;12.286;2023-03-20T08:44:17;101308.00;;;17.20
34807;BMP180;18310;55.586;12.286;2023-03-20T08:47:20;101303.00;;;17.20
34807;BMP180;18310;55.586;12.286;2023-03-20T08:50:23;101313.00;;;17.20
34807;BMP180;18310;55.586;12.286;2023-03-20T08:53:28;101306.00;;;17.20
34807;BMP180;18310;55.586;12.286;2023-03-20T08:56:31;101300.00;;;17.20
34807;BMP180;18310;55.586;12.286;2023-03-20T08:59:34;101304.00;;;17.20
34807;BMP180;18310;55.586;12.286;2023-03-20T09:02:37;101303.00;;;17.20
34807;BMP180;18310;55.586;12.286;2023-03-20T09:05:40;101296.00;;;17.30
34807;BMP180;18310;55.586;12.286;2023-03-20T09:08:44;101296.00;;;17.40
34807;BMP180;18310;55.586;12.286;2023-03-20T09:11:47;101302.00;;;17.50
34807;BMP180;18310;55.586;12.286;2023-03-20T09:14:50;101293.00;;;17.50
34807;BMP180;18310;55.586;12.286;2023-03-20T09:17:53;101296.00;;;17.60
34807;BMP180;18310;55.586;12.286;2023-03-20T09:20:55;101295.00;;;17.60
34807;BMP180;18310;55.586;12.286;2023-03-20T09:24:00;101304.00;;;17.70
34807;BMP180;18310;55.586;12.286;2023-03-20T09:27:02;101306.00;;;17.70
34807;BMP180;18310;55.586;12.286;2023-03-20T09:30:08;101300.00;;;17.70
34807;BMP180;18310;55.586;12.286;2023-03-20T09:33:11;101307.00;;;17.70
34807;BMP180;18310;55.586;12.286;2023-03-20T09:36:15;101296.00;;;17.70
34807;BMP180;18310;55.586;12.286;2023-03-20T09:39:20;101299.00;;;17.70
34807;BMP180;18310;55.586;12.286;2023-03-20T09:42:31;101302.00;;;17.80
34807;BMP180;18310;55.586;12.286;2023-03-20T09:45:49;101300.00;;;17.90
34807;BMP180;18310;55.586;12.286;2023-03-20T09:49:06;101306.00;;;18.00
34807;BMP180;18310;55.586;12.286;2023-03-20T09:52:20;101308.00;;;18.00
34807;BMP180;18310;55.586;12.286;2023-03-20T09:55:34;101312.00;;;18.00
34807;BMP180;18310;55.586;12.286;2023-03-20T09:58:39;101310.00;;;18.00
34807;BMP180;18310;55.586;12.286;2023-03-20T10:01:50;101307.00;;;17.90
34807;BMP180;18310;55.586;12.286;2023-03-20T10:04:54;101314.00;;;17.90
34807;BMP180;18310;55.586;12.286;2023-03-20T10:07:59;101320.00;;;18.00
34807;BMP180;18310;55.586;12.286;2023-03-20T10:11:20;101314.00;;;17.90
34807;BMP180;18310;55.586;12.286;2023-03-20T10:14:35;101316.00;;;17.90
34807;BMP180;18310;55.586;12.286;2023-03-20T10:17:50;101312.00;;;17.90
34807;BMP180;18310;55.586;12.286;2023-03-20T10:21:03;101309.00;;;17.90
34807;BMP180;18310;55.586;12.286;2023-03-20T10:24:16;101314.00;;;17.90
34807;BMP180;18310;55.586;12.286;2023-03-20T10:27:25;101303.00;;;17.90
34807;BMP180;18310;55.586;12.286;2023-03-20T10:30:41;101304.00;;;17.90
34807;BMP180;18310;55.586;12.286;2023-03-20T10:33:57;101303.00;;;17.90
34807;BMP180;18310;55.586;12.286;2023-03-20T10:37:27;101297.00;;;17.90
34807;BMP180;18310;55.586;12.286;2023-03-20T10:40:36;101287.00;;;18.00
34807;BMP180;18310;55.586;12.286;2023-03-20T10:43:43;101307.00;;;18.00
34807;BMP180;18310;55.586;12.286;2023-03-20T10:46:52;101307.00;;;18.00
34807;BMP180;18310;55.586;12.286;2023-03-20T10:50:00;101305.00;;;18.10
34807;BMP180;18310;55.586;12.286;2023-03-20T10:53:07;101304.00;;;18.10
34807;BMP180;18310;55.586;12.286;2023-03-20T10:56:15;101305.00;;;18.20
34807;BMP180;18310;55.586;12.286;2023-03-20T10:59:25;101305.00;;;18.20
34807;BMP180;18310;55.586;12.286;2023-03-20T11:02:30;101312.00;;;18.30
34807;BMP180;18310;55.586;12.286;2023-03-20T11:05:35;101312.00;;;18.30
34807;BMP180;18310;55.586;12.286;2023-03-20T11:08:42;101314.00;;;18.30
34807;BMP180;18310;55.586;12.286;2023-03-20T11:11:53;101312.00;;;18.30
34807;BMP180;18310;55.586;12.286;2023-03-20T11:15:14;101309.00;;;18.30
34807;BMP180;18310;55.586;12.286;2023-03-20T11:18:17;101313.00;;;18.30
34807;BMP180;18310;55.586;12.286;2023-03-20T11:21:24;101310.00;;;18.30
34807;BMP180;18310;55.586;12.286;2023-03-20T11:24:36;101311.00;;;18.40
34807;BMP180;18310;55.586;12.286;2023-03-20T11:27:39;101301.00;;;18.40
34807;BMP180;18310;55.586;12.286;2023-03-20T11:30:44;101307.00;;;18.50
34807;BMP180;18310;55.586;12.286;2023-03-20T11:34:23;101292.00;;;18.60
34807;BMP180;18310;55.586;12.286;2023-03-20T11:37:42;101297.00;;;18.60
34807;BMP180;18310;55.586;12.286;2023-03-20T11:40:47;101295.00;;;18.60
34807;BMP180;18310;55.586;12.286;2023-03-20T11:43:53;101294.00;;;18.60
34807;BMP180;18310;55.586;12.286;2023-03-20T11:47:00;101289.00;;;18.60
34807;BMP180;18310;55.586;12.286;2023-03-20T11:50:12;101287.00;;;18.70
34807;BMP180;18310;55.586;12.286;2023-03-20T11:53:30;101287.00;;;18.70
34807;BMP180;18310;55.586;12.286;2023-03-20T11:56:34;101283.00;;;18.80
34807;BMP180;18310;55.586;12.286;2023-03-20T11:59:38;101288.00;;;18.80
34807;BMP180;18310;55.586;12.286;2023-03-20T12:02:43;101280.00;;;18.90
34807;BMP180;18310;55.586;12.286;2023-03-20T12:05:46;101283.00;;;19.00
34807;BMP180;18310;55.586;12.286;2023-03-20T12:08:54;101277.00;;;19.00
34807;BMP180;18310;55.586;12.286;2023-03-20T12:12:01;101274.00;;;19.00
34807;BMP180;18310;55.586;12.286;2023-03-20T12:15:16;101284.00;;;19.00
34807;BMP180;18310;55.586;12.286;2023-03-20T12:18:30;101273.00;;;19.00
34807;BMP180;18310;55.586;12.286;2023-03-20T12:21:43;101264.00;;;19.10
34807;BMP180;18310;55.586;12.286;2023-03-20T12:25:00;101269.00;;;19.30
34807;BMP180;18310;55.586;12.286;2023-03-20T12:28:14;101264.00;;;19.40
34807;BMP180;18310;55.586;12.286;2023-03-20T12:31:25;101263.00;;;19.50
34807;BMP180;18310;55.586;12.286;2023-03-20T12:34:35;101262.00;;;19.60
34807;BMP180;18310;55.586;12.286;2023-03-20T12:37:39;101267.00;;;19.60
34807;BMP180;18310;55.586;12.286;2023-03-20T12:40:44;101268.00;;;19.50
34807;BMP180;18310;55.586;12.286;2023-03-20T12:44:22;101271.00;;;19.40
34807;BMP180;18310;55.586;12.286;2023-03-20T12:48:00;101270.00;;;19.30
34807;BMP180;18310;55.586;12.286;2023-03-20T12:51:12;101273.00;;;19.10
34807;BMP180;18310;55.586;12.286;2023-03-20T12:54:34;101272.00;;;19.10
34807;BMP180;18310;55.586;12.286;2023-03-20T12:57:54;101271.00;;;19.00
34807;BMP180;18310;55.586;12.286;2023-03-20T13:01:05;101279.00;;;18.90
34807;BMP180;18310;55.586;12.286;2023-03-20T13:04:41;101269.00;;;18.80
34807;BMP180;18310;55.586;12.286;2023-03-20T13:08:09;101270.00;;;18.80
34807;BMP180;18310;55.586;12.286;2023-03-20T13:11:26;101277.00;;;18.70
34807;BMP180;18310;55.586;12.286;2023-03-20T13:14:40;101272.00;;;18.60
34807;BMP180;18310;55.586;12.286;2023-03-20T13:17:50;101267.00;;;18.60
34807;BMP180;18310;55.586;12.286;2023-03-20T13:20:56;101269.00;;;18.60
34807;BMP180;18310;55.586;12.286;2023-03-20T13:24:21;101267.00;;;18.60
34807;BMP180;18310;55.586;12.286;2023-03-20T13:27:36;101271.00;;;18.70
34807;BMP180;18310;55.586;12.286;2023-03-20T13:30:50;101268.00;;;18.70
34807;BMP180;18310;55.586;12.286;2023-03-20T13:34:07;101272.00;;;18.70
34807;BMP180;18310;55.586;12.286;2023-03-20T13:37:18;101271.00;;;18.80
34807;BMP180;18310;55.586;12.286;2023-03-20T13:40:29;101261.00;;;18.80
34807;BMP180;18310;55.586;12.286;2023-03-20T13:43:39;101265.00;;;18.80
34807;BMP180;18310;55.586;12.286;2023-03-20T13:46:48;101262.00;;;18.80
34807;BMP180;18310;55.586;12.286;2023-03-20T13:50:18;101262.00;;;18.80
34807;BMP180;18310;55.586;12.286;2023-03-20T13:53:31;101262.00;;;18.80
34807;BMP180;18310;55.586;12.286;2023-03-20T13:56:49;101265.00;;;18.90
34807;BMP180;18310;55.586;12.286;2023-03-20T14:00:05;101267.00;;;18.90
34807;BMP180;18310;55.586;12.286;2023-03-20T14:03:17;101269.00;;;18.80
34807;BMP180;18310;55.586;12.286;2023-03-20T14:06:47;101265.00;;;18.90
34807;BMP180;18310;55.586;12.286;2023-03-20T14:09:53;101269.00;;;18.80
34807;BMP180;18310;55.586;12.286;2023-03-20T14:13:00;101272.00;;;18.80
34807;BMP180;18310;55.586;12.286;2023-03-20T14:16:08;101278.00;;;18.80
34807;BMP180;18310;55.586;12.286;2023-03-20T14:19:18;101278.00;;;18.70
34807;BMP180;18310;55.586;12.286;2023-03-20T14:22:28;101278.00;;;18.70
34807;BMP180;18310;55.586;12.286;2023-03-20T14:25:36;101267.00;;;18.70
34807;BMP180;18310;55.586;12.286;2023-03-20T14:28:52;101268.00;;;18.70
34807;BMP180;18310;55.586;12.286;2023-03-20T14:32:11;101272.00;;;18.70
34807;BMP180;18310;55.586;12.286;2023-03-20T14:35:26;101274.00;;;18.70
34807;BMP180;18310;55.586;12.286;2023-03-20T14:38:36;101273.00;;;18.70
34807;BMP180;18310;55.586;12.286;2023-03-20T14:41:56;101274.00;;;18.70
34807;BMP180;18310;55.586;12.286;2023-03-20T14:45:36;101267.00;;;18.60
34807;BMP180;18310;55.586;12.286;2023-03-20T14:48:46;101274.00;;;18.60
34807;BMP180;18310;55.586;12.286;2023-03-20T14:51:56;101270.00;;;18.60
34807;BMP180;18310;55.586;12.286;2023-03-20T14:55:45;101274.00;;;18.60
34807;BMP180;18310;55.586;12.286;2023-03-20T14:58:55;101264.00;;;18.50
34807;BMP180;18310;55.586;12.286;2023-03-20T15:02:01;101269.00;;;18.50
34807;BMP180;18310;55.586;12.286;2023-03-20T15:05:05;101270.00;;;18.50
34807;BMP180;18310;55.586;12.286;2023-03-20T15:08:11;101267.00;;;18.50
34807;BMP180;18310;55.586;12.286;2023-03-20T15:11:15;101271.00;;;18.40
34807;BMP180;18310;55.586;12.286;2023-03-20T15:14:20;101278.00;;;18.50
34807;BMP180;18310;55.586;12.286;2023-03-20T15:17:34;101272.00;;;18.50
34807;BMP180;18310;55.586;12.286;2023-03-20T15:20:38;101262.00;;;18.40
34807;BMP180;18310;55.586;12.286;2023-03-20T15:23:42;101265.00;;;18.50
34807;BMP180;18310;55.586;12.286;2023-03-20T15:26:50;101269.00;;;18.50
34807;BMP180;18310;55.586;12.286;2023-03-20T15:29:55;101275.00;;;18.50
34807;BMP180;18310;55.586;12.286;2023-03-20T15:33:00;101264.00;;;18.50
34807;BMP180;18310;55.586;12.286;2023-03-20T15:36:09;101266.00;;;18.60
34807;BMP180;18310;55.586;12.286;2023-03-20T15:39:15;101262.00;;;18.60
34807;BMP180;18310;55.586;12.286;2023-03-20T15:42:20;101267.00;;;18.50
34807;BMP180;18310;55.586;12.286;2023-03-20T15:45:27;101266.00;;;18.50
34807;BMP180;18310;55.586;12.286;2023-03-20T15:48:34;101273.00;;;18.50
34807;BMP180;18310;55.586;12.286;2023-03-20T15:51:36;101279.00;;;18.50
34807;BMP180;18310;55.586;12.286;2023-03-20T15:54:41;101278.00;;;18.40
34807;BMP180;18310;55.586;12.286;2023-03-20T15:57:46;101282.00;;;18.40
34807;BMP180;18310;55.586;12.286;2023-03-20T16:00:51;101287.00;;;18.40
34807;BMP180;18310;55.586;12.286;2023-03-20T16:03:58;101288.00;;;18.30
34807;BMP180;18310;55.586;12.286;2023-03-20T16:07:01;101292.00;;;18.30
34807;BMP180;18310;55.586;12.286;2023-03-20T16:10:19;101290.00;;;18.20
34807;BMP180;18310;55.586;12.286;2023-03-20T16:13:24;101296.00;;;18.20
34807;BMP180;18310;55.586;12.286;2023-03-20T16:16:27;101292.00;;;18.10
34807;BMP180;18310;55.586;12.286;2023-03-20T16:19:39;101291.00;;;18.00
34807;BMP180;18310;55.586;12.286;2023-03-20T16:22:43;101299.00;;;17.90
34807;BMP180;18310;55.586;12.286;2023-03-20T16:25:47;101303.00;;;17.90
34807;BMP180;18310;55.586;12.286;2023-03-20T16:28:54;101308.00;;;17.90
34807;BMP180;18310;55.586;12.286;2023-03-20T16:32:01;101300.00;;;17.90
34807;BMP180;18310;55.586;12.286;2023-03-20T16:35:16;101305.00;;;17.80
34807;BMP180;18310;55.586;12.286;2023-03-20T16:38:26;101304.00;;;17.80
34807;BMP180;18310;55.586;12.286;2023-03-20T16:41:32;101301.00;;;17.80
34807;BMP180;18310;55.586;12.286;2023-03-20T16:44:36;101304.00;;;17.70
34807;BMP180;18310;55.586;12.286;2023-03-20T16:47:40;101305.00;;;17.70
34807;BMP180;18310;55.586;12.286;2023-03-20T16:50:46;101308.00;;;17.60
34807;BMP180;18310;55.586;12.286;2023-03-20T16:53:56;101314.00;;;17.60
34807;BMP180;18310;55.586;12.286;2023-03-20T16:57:07;101306.00;;;17.60
34807;BMP180;18310;55.586;12.286;2023-03-20T17:00:23;101306.00;;;17.60
34807;BMP180;18310;55.586;12.286;2023-03-20T17:03:29;101317.00;;;17.60
34807;BMP180;18310;55.586;12.286;2023-03-20T17:06:45;101311.00;;;17.50
34807;BMP180;18310;55.586;12.286;2023-03-20T17:09:56;101312.00;;;17.50
34807;BMP180;18310;55.586;12.286;2023-03-20T17:13:00;101317.00;;;17.50
34807;BMP180;18310;55.586;12.286;2023-03-20T17:16:03;101315.00;;;17.50
34807;BMP180;18310;55.586;12.286;2023-03-20T17:19:13;101317.00;;;17.50
34807;BMP180;18310;55.586;12.286;2023-03-20T17:22:20;101314.00;;;17.50
34807;BMP180;18310;55.586;12.286;2023-03-20T17:25:23;101323.00;;;17.40
34807;BMP180;18310;55.586;12.286;2023-03-20T17:28:33;101324.00;;;17.50
34807;BMP180;18310;55.586;12.286;2023-03-20T17:31:37;101325.00;;;17.50
34807;BMP180;18310;55.586;12.286;2023-03-20T17:34:40;101332.00;;;17.50
34807;BMP180;18310;55.586;12.286;2023-03-20T17:37:45;101331.00;;;17.40
34807;BMP180;18310;55.586;12.286;2023-03-20T17:40:51;101329.00;;;17.40
34807;BMP180;18310;55.586;12.286;2023-03-20T17:43:54;101339.00;;;17.40
34807;BMP180;18310;55.586;12.286;2023-03-20T17:46:57;101336.00;;;17.40
34807;BMP180;18310;55.586;12.286;2023-03-20T17:50:04;101334.00;;;17.30
34807;BMP180;18310;55.586;12.286;2023-03-20T17:53:14;101340.00;;;17.30
34807;BMP180;18310;55.586;12.286;2023-03-20T17:56:17;101347.00;;;17.20
34807;BMP180;18310;55.586;12.286;2023-03-20T17:59:20;101347.00;;;17.20
34807;BMP180;18310;55.586;12.286;2023-03-20T18:02:23;101344.00;;;17.20
34807;BMP180;18310;55.586;12.286;2023-03-20T18:05:26;101345.00;;;17.20
34807;BMP180;18310;55.586;12.286;2023-03-20T18:08:31;101341.00;;;17.20
34807;BMP180;18310;55.586;12.286;2023-03-20T18:11:34;101346.00;;;17.20
34807;BMP180;18310;55.586;12.286;2023-03-20T18:14:38;101342.00;;;17.20
34807;BMP180;18310;55.586;12.286;2023-03-20T18:17:41;101348.00;;;17.20
34807;BMP180;18310;55.586;12.286;2023-03-20T18:20:44;101352.00;;;17.20
34807;BMP180;18310;55.586;12.286;2023-03-20T18:23:48;101344.00;;;17.20
34807;BMP180;18310;55.586;12.286;2023-03-20T18:26:54;101349.00;;;17.20
34807;BMP180;18310;55.586;12.286;2023-03-20T18:29:57;101345.00;;;17.20
34807;BMP180;18310;55.586;12.286;2023-03-20T18:33:00;101341.00;;;17.20
34807;BMP180;18310;55.586;12.286;2023-03-20T18:36:04;101342.00;;;17.20
34807;BMP180;18310;55.586;12.286;2023-03-20T18:39:15;101345.00;;;17.20
34807;BMP180;18310;55.586;12.286;2023-03-20T18:42:18;101350.00;;;17.10
34807;BMP180;18310;55.586;12.286;2023-03-20T18:45:23;101350.00;;;17.10
34807;BMP180;18310;55.586;12.286;2023-03-20T18:48:27;101345.00;;;17.00
34807;BMP180;18310;55.586;12.286;2023-03-20T18:51:32;101357.00;;;17.00
34807;BMP180;18310;55.586;12.286;2023-03-20T18:54:36;101361.00;;;17.00
34807;BMP180;18310;55.586;12.286;2023-03-20T18:57:39;101359.00;;;17.00
34807;BMP180;18310;55.586;12.286;2023-03-20T19:00:44;101362.00;;;16.90
34807;BMP180;18310;55.586;12.286;2023-03-20T19:03:47;101359.00;;;16.90
34807;BMP180;18310;55.586;12.286;2023-03-20T19:06:50;101362.00;;;16.80
34807;BMP180;18310;55.586;12.286;2023-03-20T19:09:54;101359.00;;;16.80
34807;BMP180;18310;55.586;12.286;2023-03-20T19:12:57;101359.00;;;16.80
34807;BMP180;18310;55.586;12.286;2023-03-20T19:16:00;101365.00;;;16.70
34807;BMP180;18310;55.586;12.286;2023-03-20T19:19:05;101360.00;;;16.70
34807;BMP180;18310;55.586;12.286;2023-03-20T19:22:08;101368.00;;;16.70
34807;BMP180;18310;55.586;12.286;2023-03-20T19:25:31;101366.00;;;16.70
34807;BMP180;18310;55.586;12.286;2023-03-20T19:28:34;101366.00;;;16.70
34807;BMP180;18310;55.586;12.286;2023-03-20T19:31:42;101374.00;;;16.60
34807;BMP180;18310;55.586;12.286;2023-03-20T19:34:45;101367.00;;;16.60
34807;BMP180;18310;55.586;12.286;2023-03-20T19:38:12;101370.00;;;16.60
34807;BMP180;18310;55.586;12.286;2023-03-20T19:41:17;101365.00;;;16.60
34807;BMP180;18310;55.586;12.286;2023-03-20T19:44:21;101374.00;;;16.50
34807;BMP180;18310;55.586;12.286;2023-03-20T19:47:23;101376.00;;;16.50
34807;BMP180;18310;55.586;12.286;2023-03-20T19:50:31;101373.00;;;16.50
34807;BMP180;18310;55.586;12.286;2023-03-20T19:53:35;101372.00;;;16.40
34807;BMP180;18310;55.586;12.286;2023-03-20T19:56:39;101375.00;;;16.30
34807;BMP180;18310;55.586;12.286;2023-03-20T19:59:42;101374.00;;;16.30
34807;BMP180;18310;55.586;12.286;2023-03-20T20:02:46;101373.00;;;16.20
34807;BMP180;18310;55.586;12.286;2023-03-20T20:05:51;101365.00;;;16.10
34807;BMP180;18310;55.586;12.286;2023-03-20T20:08:54;101377.00;;;15.90
34807;BMP180;18310;55.586;12.286;2023-03-20T20:11:59;101368.00;;;15.80
34807;BMP180;18310;55.586;12.286;2023-03-20T20:15:02;101369.00;;;15.70
34807;BMP180;18310;55.586;12.286;2023-03-20T20:18:05;101364.00;;;15.60
34807;BMP180;18310;55.586;12.286;2023-03-20T20:21:08;101360.00;;;15.50
34807;BMP180;18310;55.586;12.286;2023-03-20T20:24:31;101357.00;;;15.30
34807;BMP180;18310;55.586;12.286;2023-03-20T20:27:35;101362.00;;;15.30
34807;BMP180;18310;55.586;12.286;2023-03-20T20:30:39;101351.00;;;15.20
34807;BMP180;18310;55.586;12.286;2023-03-20T20:33:42;101345.00;;;15.10
34807;BMP180;18310;55.586;12.286;2023-03-20T20:37:04;101348.00;;;15.00
34807;BMP180;18310;55.586;12.286;2023-03-20T20:40:28;101355.00;;;14.90
34807;BMP180;18310;55.586;12.286;2023-03-20T20:43:32;101360.00;;;14.90
34807;BMP180;18310;55.586;12.286;2023-03-20T20:46:56;101359.00;;;14.80
34807;BMP180;18310;55.586;12.286;2023-03-20T20:49:59;101364.00;;;14.70
34807;BMP180;18310;55.586;12.286;2023-03-20T20:53:04;101357.00;;;14.70
34807;BMP180;18310;55.586;12.286;2023-03-20T20:56:08;101357.00;;;14.70
34807;BMP180;18310;55.586;12.286;2023-03-20T20:59:12;101368.00;;;14.60
34807;BMP180;18310;55.586;12.286;2023-03-20T21:02:15;101373.00;;;14.60
34807;BMP180;18310;55.586;12.286;2023-03-20T21:05:19;101374.00;;;14.60
34807;BMP180;18310;55.586;12.286;2023-03-20T21:08:22;101371.00;;;14.60
34807;BMP180;18310;55.586;12.286;2023-03-20T21:11:25;101379.00;;;14.50
34807;BMP180;18310;55.586;12.286;2023-03-20T21:14:30;101384.00;;;14.50
34807;BMP180;18310;55.586;12.286;2023-03-20T21:17:33;101377.00;;;14.50
34807;BMP180;18310;55.586;12.286;2023-03-20T21:20:36;101378.00;;;14.40
34807;BMP180;18310;55.586;12.286;2023-03-20T21:23:40;101382.00;;;14.40
34807;BMP180;18310;55.586;12.286;2023-03-20T21:26:43;101388.00;;;14.40
34807;BMP180;18310;55.586;12.286;2023-03-20T21:29:48;101394.00;;;14.30
34807;BMP180;18310;55.586;12.286;2023-03-20T21:32:51;101390.00;;;14.30
34807;BMP180;18310;55.586;12.286;2023-03-20T21:35:54;101394.00;;;14.30
34807;BMP180;18310;55.586;12.286;2023-03-20T21:38:57;101400.00;;;14.30
34807;BMP180;18310;55.586;12.286;2023-03-20T21:42:10;101395.00;;;14.20
34807;BMP180;18310;55.586;12.286;2023-03-20T21:45:14;101394.00;;;14.20
34807;BMP180;18310;55.586;12.286;2023-03-20T21:48:37;101397.00;;;14.20
34807;BMP180;18310;55.586;12.286;2023-03-20T21:52:00;101397.00;;;14.10
34807;BMP180;18310;55.586;12.286;2023-03-20T21:55:23;101395.00;;;14.10
34807;BMP180;18310;55.586;12.286;2023-03-20T21:58:46;101400.00;;;14.10
34807;BMP180;18310;55.586;12.286;2023-03-20T22:02:14;101396.00;;;14.10
34807;BMP180;18310;55.586;12.286;2023-03-20T22:05:25;101404.00;;;14.00
34807;BMP180;18310;55.586;12.286;2023-03-20T22:08:48;101407.00;;;14.00
34807;BMP180;18310;55.586;12.286;2023-03-20T22:12:11;101416.00;;;14.00
34807;BMP180;18310;55.586;12.286;2023-03-20T22:15:34;101424.00;;;14.00
34807;BMP180;18310;55.586;12.286;2023-03-20T22:18:58;101413.00;;;14.00
34807;BMP180;18310;55.586;12.286;2023-03-20T22:22:21;101408.00;;;13.90
34807;BMP180;18310;55.586;12.286;2023-03-20T22:25:54;101415.00;;;13.90
34807;BMP180;18310;55.586;12.286;2023-03-20T22:29:17;101412.00;;;13.90
34807;BMP180;18310;55.586;12.286;2023-03-20T22:32:40;101417.00;;;13.80
34807;BMP180;18310;55.586;12.286;2023-03-20T22:36:06;101412.00;;;13.80
34807;BMP180;18310;55.586;12.286;2023-03-20T22:39:29;101418.00;;;13.80
34807;BMP180;18310;55.586;12.286;2023-03-20T22:42:54;101414.00;;;13.80
34807;BMP180;18310;55.586;12.286;2023-03-20T22:46:17;101411.00;;;13.70
34807;BMP180;18310;55.586;12.286;2023-03-20T22:49:40;101407.00;;;13.70
34807;BMP180;18310;55.586;12.286;2023-03-20T22:52:44;101412.00;;;13.70
34807;BMP180;18310;55.586;12.286;2023-03-20T22:55:50;101415.00;;;13.70
34807;BMP180;18310;55.586;12.286;2023-03-20T22:58:54;101412.00;;;13.70
34807;BMP180;18310;55.586;12.286;2023-03-20T23:01:57;101407.00;;;13.60
34807;BMP180;18310;55.586;12.286;2023-03-20T23:05:00;101410.00;;;13.60
34807;BMP180;18310;55.586;12.286;2023-03-20T23:08:07;101405.00;;;13.60
34807;BMP180;18310;55.586;12.286;2023-03-20T23:11:10;101400.00;;;13.60
34807;BMP180;18310;55.586;12.286;2023-03-20T23:14:14;101404.00;;;13.60
34807;BMP180;18310;55.586;12.286;2023-03-20T23:17:25;101417.00;;;13.50
34807;BMP180;18310;55.586;12.286;2023-03-20T23:20:28;101410.00;;;13.50
34807;BMP180;18310;55.586;12.286;2023-03-20T23:23:33;101404.00;;;13.40
34807;BMP180;18310;55.586;12.286;2023-03-20T23:26:36;101405.00;;;13.40
34807;BMP180;18310;55.586;12.286;2023-03-20T23:29:39;101402.00;;;13.30
34807;BMP180;18310;55.586;12.286;2023-03-20T23:32:41;101408.00;;;13.30
34807;BMP180;18310;55.586;12.286;2023-03-20T23:35:44;101407.00;;;13.30
34807;BMP180;18310;55.586;12.286;2023-03-20T23:38:50;101412.00;;;13.30
34807;BMP180;18310;55.586;12.286;2023-03-20T23:41:53;101416.00;;;13.20
34807;BMP180;18310;55.586;12.286;2023-03-20T23:45:17;101407.00;;;13.20
34807;BMP180;18310;55.586;12.286;2023-03-20T23:48:39;101411.00;;;13.20
34807;BMP180;18310;55.586;12.286;2023-03-20T23:51:43;101411.00;;;13.20
34807;BMP180;18310;55.586;12.286;2023-03-20T23:54:47;101411.00;;;13.10
34807;BMP180;18310;55.586;12.286;2023-03-20T23:57:50;101421.00;;;13.10
